sensor_id;sensor_type;location;lat;lon;timestamp;P1;durP1;ratioP1;P2;durP2;ratioP2
31798;SDS011;18374;51.136;3.502;2023-05-25T00:02:04;13.80;;;4.93;;
31798;SDS011;18374;51.136;3.502;2023-05-25T00:04:32;9.35;;;4.65;;
31798;SDS011;18374;51.136;3.502;2023-05-25T00:07:00;12.68;;;4.95;;
31798;SDS011;18374;51.136;3.502;2023-05-25T00:09:29;16.45;;;5.70;;
31798;SDS011;18374;51.136;3.502;2023-05-25T00:11:57;13.77;;;4.65;;
31798;SDS011;18374;51.136;3.502;2023-05-25T00:14:25;16.38;;;5.10;;
31798;SDS011;18374;51.136;3.502;2023-05-25T00:16:53;14.95;;;4.95;;
31798;SDS011;18374;51.136;3.502;2023-05-25T00:19:21;15.57;;;4.88;;
31798;SDS011;18374;51.136;3.502;2023-05-25T00:21:49;13.90;;;5.38;;
31798;SDS011;18374;51.136;3.502;2023-05-25T00:24:17;17.52;;;5.65;;
31798;SDS011;18374;51.136;3.502;2023-05-25T00:26:44;17.75;;;5.60;;
31798;SDS011;18374;51.136;3.502;2023-05-25T00:29:13;18.10;;;4.88;;
31798;SDS011;18374;51.136;3.502;2023-05-25T00:31:41;12.93;;;4.80;;
31798;SDS011;18374;51.136;3.502;2023-05-25T00:34:09;16.00;;;5.85;;
31798;SDS011;18374;51.136;3.502;2023-05-25T00:36:37;17.27;;;5.38;;
31798;SDS011;18374;51.136;3.502;2023-05-25T00:39:05;27.05;;;5.88;;
31798;SDS011;18374;51.136;3.502;2023-05-25T00:41:32;14.80;;;5.75;;
31798;SDS011;18374;51.136;3.502;2023-05-25T00:44:07;16.35;;;5.40;;
31798;SDS011;18374;51.136;3.502;2023-05-25T00:46:38;19.02;;;5.47;;
31798;SDS011;18374;51.136;3.502;2023-05-25T00:49:12;20.70;;;5.57;;
31798;SDS011;18374;51.136;3.502;2023-05-25T00:51:41;14.32;;;5.43;;
31798;SDS011;18374;51.136;3.502;2023-05-25T00:54:13;17.48;;;5.55;;
31798;SDS011;18374;51.136;3.502;2023-05-25T00:56:46;15.40;;;5.38;;
31798;SDS011;18374;51.136;3.502;2023-05-25T00:59:23;19.00;;;5.78;;
31798;SDS011;18374;51.136;3.502;2023-05-25T01:01:59;16.85;;;5.72;;
31798;SDS011;18374;51.136;3.502;2023-05-25T01:04:33;20.50;;;5.55;;
31798;SDS011;18374;51.136;3.502;2023-05-25T01:07:07;15.32;;;5.20;;
31798;SDS011;18374;51.136;3.502;2023-05-25T01:09:38;13.57;;;4.82;;
31798;SDS011;18374;51.136;3.502;2023-05-25T01:12:08;14.60;;;5.28;;
31798;SDS011;18374;51.136;3.502;2023-05-25T01:14:39;13.90;;;4.60;;
31798;SDS011;18374;51.136;3.502;2023-05-25T01:17:09;15.23;;;5.05;;
31798;SDS011;18374;51.136;3.502;2023-05-25T01:19:37;14.52;;;5.10;;
31798;SDS011;18374;51.136;3.502;2023-05-25T01:22:10;11.90;;;5.18;;
31798;SDS011;18374;51.136;3.502;2023-05-25T01:24:48;13.82;;;4.82;;
31798;SDS011;18374;51.136;3.502;2023-05-25T01:27:29;12.82;;;5.22;;
31798;SDS011;18374;51.136;3.502;2023-05-25T01:30:05;13.05;;;5.22;;
31798;SDS011;18374;51.136;3.502;2023-05-25T01:32:40;17.60;;;5.93;;
31798;SDS011;18374;51.136;3.502;2023-05-25T01:35:09;12.38;;;5.22;;
31798;SDS011;18374;51.136;3.502;2023-05-25T01:37:43;12.07;;;5.18;;
31798;SDS011;18374;51.136;3.502;2023-05-25T01:40:15;18.85;;;5.13;;
31798;SDS011;18374;51.136;3.502;2023-05-25T01:42:43;13.50;;;6.13;;
31798;SDS011;18374;51.136;3.502;2023-05-25T01:45:11;22.27;;;5.75;;
31798;SDS011;18374;51.136;3.502;2023-05-25T01:51:04;14.02;;;5.38;;
31798;SDS011;18374;51.136;3.502;2023-05-25T01:53:47;13.70;;;5.22;;
31798;SDS011;18374;51.136;3.502;2023-05-25T01:56:22;16.40;;;4.80;;
31798;SDS011;18374;51.136;3.502;2023-05-25T01:58:53;14.45;;;5.75;;
31798;SDS011;18374;51.136;3.502;2023-05-25T02:01:23;16.98;;;5.47;;
31798;SDS011;18374;51.136;3.502;2023-05-25T02:03:53;11.80;;;5.35;;
31798;SDS011;18374;51.136;3.502;2023-05-25T02:06:22;15.25;;;5.75;;
31798;SDS011;18374;51.136;3.502;2023-05-25T02:08:51;15.45;;;5.88;;
31798;SDS011;18374;51.136;3.502;2023-05-25T02:11:18;13.77;;;5.78;;
31798;SDS011;18374;51.136;3.502;2023-05-25T02:13:46;15.20;;;6.03;;
31798;SDS011;18374;51.136;3.502;2023-05-25T02:16:14;12.82;;;6.70;;
31798;SDS011;18374;51.136;3.502;2023-05-25T02:18:44;19.58;;;5.70;;
31798;SDS011;18374;51.136;3.502;2023-05-25T02:21:12;14.43;;;6.13;;
31798;SDS011;18374;51.136;3.502;2023-05-25T02:23:39;16.92;;;5.80;;
31798;SDS011;18374;51.136;3.502;2023-05-25T02:26:07;13.55;;;6.03;;
31798;SDS011;18374;51.136;3.502;2023-05-25T02:28:35;15.68;;;5.72;;
31798;SDS011;18374;51.136;3.502;2023-05-25T02:31:03;10.95;;;6.00;;
31798;SDS011;18374;51.136;3.502;2023-05-25T02:33:31;17.63;;;5.70;;
31798;SDS011;18374;51.136;3.502;2023-05-25T02:35:59;15.07;;;5.90;;
31798;SDS011;18374;51.136;3.502;2023-05-25T02:38:27;10.77;;;5.85;;
31798;SDS011;18374;51.136;3.502;2023-05-25T02:40:54;14.93;;;6.28;;
31798;SDS011;18374;51.136;3.502;2023-05-25T02:43:23;14.27;;;6.05;;
31798;SDS011;18374;51.136;3.502;2023-05-25T02:45:51;16.80;;;5.95;;
31798;SDS011;18374;51.136;3.502;2023-05-25T02:48:18;14.38;;;6.15;;
31798;SDS011;18374;51.136;3.502;2023-05-25T02:50:47;20.00;;;5.78;;
31798;SDS011;18374;51.136;3.502;2023-05-25T02:53:15;15.73;;;5.97;;
31798;SDS011;18374;51.136;3.502;2023-05-25T02:55:43;22.33;;;5.78;;
31798;SDS011;18374;51.136;3.502;2023-05-25T02:58:16;13.85;;;6.00;;
31798;SDS011;18374;51.136;3.502;2023-05-25T03:01:19;21.30;;;6.90;;
31798;SDS011;18374;51.136;3.502;2023-05-25T03:03:51;10.93;;;6.18;;
31798;SDS011;18374;51.136;3.502;2023-05-25T03:06:22;12.02;;;5.57;;
31798;SDS011;18374;51.136;3.502;2023-05-25T03:09:06;15.57;;;6.20;;
31798;SDS011;18374;51.136;3.502;2023-05-25T03:11:38;14.25;;;6.45;;
31798;SDS011;18374;51.136;3.502;2023-05-25T03:14:08;13.07;;;6.03;;
31798;SDS011;18374;51.136;3.502;2023-05-25T03:16:38;15.07;;;5.50;;
31798;SDS011;18374;51.136;3.502;2023-05-25T03:19:06;19.33;;;6.32;;
31798;SDS011;18374;51.136;3.502;2023-05-25T03:21:36;13.35;;;6.30;;
31798;SDS011;18374;51.136;3.502;2023-05-25T03:24:06;15.90;;;5.80;;
31798;SDS011;18374;51.136;3.502;2023-05-25T03:26:34;15.93;;;6.07;;
31798;SDS011;18374;51.136;3.502;2023-05-25T03:29:03;15.07;;;5.93;;
31798;SDS011;18374;51.136;3.502;2023-05-25T03:31:34;13.05;;;5.93;;
31798;SDS011;18374;51.136;3.502;2023-05-25T03:34:02;15.95;;;6.57;;
31798;SDS011;18374;51.136;3.502;2023-05-25T03:36:34;18.98;;;7.22;;
31798;SDS011;18374;51.136;3.502;2023-05-25T03:39:04;23.00;;;6.93;;
31798;SDS011;18374;51.136;3.502;2023-05-25T03:41:33;20.35;;;7.20;;
31798;SDS011;18374;51.136;3.502;2023-05-25T03:44:00;17.13;;;6.82;;
31798;SDS011;18374;51.136;3.502;2023-05-25T03:46:30;19.83;;;7.63;;
31798;SDS011;18374;51.136;3.502;2023-05-25T03:48:59;19.15;;;8.05;;
31798;SDS011;18374;51.136;3.502;2023-05-25T03:51:27;16.40;;;7.63;;
31798;SDS011;18374;51.136;3.502;2023-05-25T03:53:55;28.27;;;8.00;;
31798;SDS011;18374;51.136;3.502;2023-05-25T03:56:23;23.90;;;8.55;;
31798;SDS011;18374;51.136;3.502;2023-05-25T03:58:52;25.25;;;8.27;;
31798;SDS011;18374;51.136;3.502;2023-05-25T04:01:19;23.88;;;8.00;;
31798;SDS011;18374;51.136;3.502;2023-05-25T04:03:47;19.92;;;8.68;;
31798;SDS011;18374;51.136;3.502;2023-05-25T04:06:15;24.38;;;8.23;;
31798;SDS011;18374;51.136;3.502;2023-05-25T04:08:45;19.65;;;8.10;;
31798;SDS011;18374;51.136;3.502;2023-05-25T04:11:13;22.55;;;7.22;;
31798;SDS011;18374;51.136;3.502;2023-05-25T04:13:41;17.42;;;6.97;;
31798;SDS011;18374;51.136;3.502;2023-05-25T04:16:09;17.05;;;7.28;;
31798;SDS011;18374;51.136;3.502;2023-05-25T04:18:39;19.55;;;7.10;;
31798;SDS011;18374;51.136;3.502;2023-05-25T04:21:07;19.88;;;6.80;;
31798;SDS011;18374;51.136;3.502;2023-05-25T04:23:35;14.50;;;7.15;;
31798;SDS011;18374;51.136;3.502;2023-05-25T04:26:05;14.27;;;6.65;;
31798;SDS011;18374;51.136;3.502;2023-05-25T04:28:38;19.00;;;6.75;;
31798;SDS011;18374;51.136;3.502;2023-05-25T04:31:31;15.68;;;6.72;;
31798;SDS011;18374;51.136;3.502;2023-05-25T04:34:20;15.40;;;7.18;;
31798;SDS011;18374;51.136;3.502;2023-05-25T04:36:56;15.07;;;7.22;;
31798;SDS011;18374;51.136;3.502;2023-05-25T04:39:24;16.27;;;6.68;;
31798;SDS011;18374;51.136;3.502;2023-05-25T04:41:55;16.42;;;6.57;;
31798;SDS011;18374;51.136;3.502;2023-05-25T04:44:23;17.70;;;7.53;;
31798;SDS011;18374;51.136;3.502;2023-05-25T04:46:52;16.02;;;6.82;;
31798;SDS011;18374;51.136;3.502;2023-05-25T04:49:32;19.70;;;7.43;;
31798;SDS011;18374;51.136;3.502;2023-05-25T04:52:00;20.75;;;7.55;;
31798;SDS011;18374;51.136;3.502;2023-05-25T04:54:30;15.23;;;7.20;;
31798;SDS011;18374;51.136;3.502;2023-05-25T04:57:00;18.90;;;9.40;;
31798;SDS011;18374;51.136;3.502;2023-05-25T04:59:30;15.25;;;7.63;;
31798;SDS011;18374;51.136;3.502;2023-05-25T05:01:59;15.75;;;7.25;;
31798;SDS011;18374;51.136;3.502;2023-05-25T05:04:26;18.98;;;7.25;;
31798;SDS011;18374;51.136;3.502;2023-05-25T05:06:54;16.70;;;8.23;;
31798;SDS011;18374;51.136;3.502;2023-05-25T05:09:27;23.27;;;7.80;;
31798;SDS011;18374;51.136;3.502;2023-05-25T05:11:57;19.50;;;8.15;;
31798;SDS011;18374;51.136;3.502;2023-05-25T05:14:25;22.50;;;8.15;;
31798;SDS011;18374;51.136;3.502;2023-05-25T05:16:53;17.98;;;8.48;;
31798;SDS011;18374;51.136;3.502;2023-05-25T05:19:21;12.93;;;7.20;;
31798;SDS011;18374;51.136;3.502;2023-05-25T05:21:49;17.42;;;7.72;;
31798;SDS011;18374;51.136;3.502;2023-05-25T05:24:18;24.10;;;8.40;;
31798;SDS011;18374;51.136;3.502;2023-05-25T05:26:46;25.58;;;8.63;;
31798;SDS011;18374;51.136;3.502;2023-05-25T05:29:23;19.45;;;7.47;;
31798;SDS011;18374;51.136;3.502;2023-05-25T05:31:51;21.30;;;8.15;;
31798;SDS011;18374;51.136;3.502;2023-05-25T05:34:20;13.73;;;7.38;;
31798;SDS011;18374;51.136;3.502;2023-05-25T05:36:49;21.73;;;8.02;;
31798;SDS011;18374;51.136;3.502;2023-05-25T05:39:25;16.67;;;7.07;;
31798;SDS011;18374;51.136;3.502;2023-05-25T05:41:54;12.75;;;7.30;;
31798;SDS011;18374;51.136;3.502;2023-05-25T05:44:22;21.77;;;8.18;;
31798;SDS011;18374;51.136;3.502;2023-05-25T05:46:55;23.10;;;8.10;;
31798;SDS011;18374;51.136;3.502;2023-05-25T05:49:28;20.20;;;7.63;;
31798;SDS011;18374;51.136;3.502;2023-05-25T05:51:58;21.63;;;8.43;;
31798;SDS011;18374;51.136;3.502;2023-05-25T05:54:26;22.60;;;7.97;;
31798;SDS011;18374;51.136;3.502;2023-05-25T05:56:58;17.58;;;7.38;;
31798;SDS011;18374;51.136;3.502;2023-05-25T05:59:26;16.80;;;7.03;;
31798;SDS011;18374;51.136;3.502;2023-05-25T06:01:55;17.48;;;7.32;;
31798;SDS011;18374;51.136;3.502;2023-05-25T06:04:23;19.52;;;7.00;;
31798;SDS011;18374;51.136;3.502;2023-05-25T06:06:56;16.70;;;6.70;;
31798;SDS011;18374;51.136;3.502;2023-05-25T06:09:25;14.20;;;6.35;;
31798;SDS011;18374;51.136;3.502;2023-05-25T06:11:55;17.08;;;6.50;;
31798;SDS011;18374;51.136;3.502;2023-05-25T06:14:23;11.35;;;5.82;;
31798;SDS011;18374;51.136;3.502;2023-05-25T06:16:54;20.75;;;6.25;;
31798;SDS011;18374;51.136;3.502;2023-05-25T06:19:24;20.40;;;6.53;;
31798;SDS011;18374;51.136;3.502;2023-05-25T06:21:51;15.10;;;6.20;;
31798;SDS011;18374;51.136;3.502;2023-05-25T06:24:20;14.25;;;6.00;;
31798;SDS011;18374;51.136;3.502;2023-05-25T06:26:48;13.07;;;5.35;;
31798;SDS011;18374;51.136;3.502;2023-05-25T06:29:18;17.40;;;6.07;;
31798;SDS011;18374;51.136;3.502;2023-05-25T06:31:46;11.43;;;5.22;;
31798;SDS011;18374;51.136;3.502;2023-05-25T06:34:14;12.20;;;5.65;;
31798;SDS011;18374;51.136;3.502;2023-05-25T06:36:42;13.40;;;5.75;;
31798;SDS011;18374;51.136;3.502;2023-05-25T06:39:10;13.13;;;6.15;;
31798;SDS011;18374;51.136;3.502;2023-05-25T06:41:37;14.88;;;5.63;;
31798;SDS011;18374;51.136;3.502;2023-05-25T06:44:06;10.88;;;5.00;;
31798;SDS011;18374;51.136;3.502;2023-05-25T06:46:44;11.68;;;5.05;;
31798;SDS011;18374;51.136;3.502;2023-05-25T06:49:14;9.25;;;4.95;;
31798;SDS011;18374;51.136;3.502;2023-05-25T06:51:42;10.90;;;4.97;;
31798;SDS011;18374;51.136;3.502;2023-05-25T06:54:10;13.35;;;4.47;;
31798;SDS011;18374;51.136;3.502;2023-05-25T06:56:40;9.30;;;5.22;;
31798;SDS011;18374;51.136;3.502;2023-05-25T06:59:08;14.55;;;4.78;;
31798;SDS011;18374;51.136;3.502;2023-05-25T07:01:36;9.68;;;4.15;;
31798;SDS011;18374;51.136;3.502;2023-05-25T07:04:04;10.43;;;4.47;;
31798;SDS011;18374;51.136;3.502;2023-05-25T07:06:32;11.27;;;4.32;;
31798;SDS011;18374;51.136;3.502;2023-05-25T07:08:59;14.20;;;4.30;;
31798;SDS011;18374;51.136;3.502;2023-05-25T07:11:27;11.95;;;4.28;;
31798;SDS011;18374;51.136;3.502;2023-05-25T07:13:55;11.02;;;3.45;;
31798;SDS011;18374;51.136;3.502;2023-05-25T07:16:23;7.07;;;3.65;;
31798;SDS011;18374;51.136;3.502;2023-05-25T07:18:52;12.80;;;4.05;;
31798;SDS011;18374;51.136;3.502;2023-05-25T07:21:19;9.15;;;3.80;;
31798;SDS011;18374;51.136;3.502;2023-05-25T07:23:47;8.02;;;3.92;;
31798;SDS011;18374;51.136;3.502;2023-05-25T07:26:15;9.27;;;3.78;;
31798;SDS011;18374;51.136;3.502;2023-05-25T07:28:42;11.45;;;3.65;;
31798;SDS011;18374;51.136;3.502;2023-05-25T07:31:10;8.23;;;3.85;;
31798;SDS011;18374;51.136;3.502;2023-05-25T07:33:38;12.60;;;4.10;;
31798;SDS011;18374;51.136;3.502;2023-05-25T07:36:06;9.07;;;3.90;;
31798;SDS011;18374;51.136;3.502;2023-05-25T07:38:35;12.82;;;4.03;;
31798;SDS011;18374;51.136;3.502;2023-05-25T07:41:03;11.20;;;4.10;;
31798;SDS011;18374;51.136;3.502;2023-05-25T07:43:31;7.57;;;3.47;;
31798;SDS011;18374;51.136;3.502;2023-05-25T07:45:59;10.32;;;3.30;;
31798;SDS011;18374;51.136;3.502;2023-05-25T07:48:30;7.65;;;3.28;;
31798;SDS011;18374;51.136;3.502;2023-05-25T07:50:58;9.35;;;4.05;;
31798;SDS011;18374;51.136;3.502;2023-05-25T07:53:25;8.15;;;3.10;;
31798;SDS011;18374;51.136;3.502;2023-05-25T07:55:53;9.55;;;3.70;;
31798;SDS011;18374;51.136;3.502;2023-05-25T07:58:21;6.95;;;3.35;;
31798;SDS011;18374;51.136;3.502;2023-05-25T08:00:49;11.32;;;3.40;;
31798;SDS011;18374;51.136;3.502;2023-05-25T08:03:17;6.82;;;3.25;;
31798;SDS011;18374;51.136;3.502;2023-05-25T08:05:58;7.47;;;3.15;;
31798;SDS011;18374;51.136;3.502;2023-05-25T08:08:25;7.70;;;2.80;;
31798;SDS011;18374;51.136;3.502;2023-05-25T08:10:53;4.05;;;2.95;;
31798;SDS011;18374;51.136;3.502;2023-05-25T08:13:21;6.80;;;3.00;;
31798;SDS011;18374;51.136;3.502;2023-05-25T08:15:49;4.72;;;2.90;;
31798;SDS011;18374;51.136;3.502;2023-05-25T08:18:16;6.20;;;3.00;;
31798;SDS011;18374;51.136;3.502;2023-05-25T08:20:45;5.15;;;3.03;;
31798;SDS011;18374;51.136;3.502;2023-05-25T08:23:13;9.65;;;2.90;;
31798;SDS011;18374;51.136;3.502;2023-05-25T08:25:41;6.28;;;2.70;;
31798;SDS011;18374;51.136;3.502;2023-05-25T08:28:08;4.55;;;2.38;;
31798;SDS011;18374;51.136;3.502;2023-05-25T08:30:37;4.55;;;2.60;;
31798;SDS011;18374;51.136;3.502;2023-05-25T08:33:04;6.53;;;3.10;;
31798;SDS011;18374;51.136;3.502;2023-05-25T08:35:33;6.13;;;3.00;;
31798;SDS011;18374;51.136;3.502;2023-05-25T08:38:00;4.82;;;2.30;;
31798;SDS011;18374;51.136;3.502;2023-05-25T08:40:28;8.40;;;3.78;;
31798;SDS011;18374;51.136;3.502;2023-05-25T08:42:56;4.53;;;2.70;;
31798;SDS011;18374;51.136;3.502;2023-05-25T08:45:24;10.20;;;2.80;;
31798;SDS011;18374;51.136;3.502;2023-05-25T08:48:12;6.30;;;2.50;;
31798;SDS011;18374;51.136;3.502;2023-05-25T08:51:04;5.60;;;2.97;;
31798;SDS011;18374;51.136;3.502;2023-05-25T08:53:37;5.05;;;2.78;;
31798;SDS011;18374;51.136;3.502;2023-05-25T08:56:18;7.65;;;3.38;;
31798;SDS011;18374;51.136;3.502;2023-05-25T08:58:52;4.93;;;2.45;;
31798;SDS011;18374;51.136;3.502;2023-05-25T09:01:33;5.60;;;2.40;;
31798;SDS011;18374;51.136;3.502;2023-05-25T09:04:08;7.63;;;3.03;;
31798;SDS011;18374;51.136;3.502;2023-05-25T09:06:36;7.55;;;2.92;;
31798;SDS011;18374;51.136;3.502;2023-05-25T09:09:04;7.35;;;2.70;;
31798;SDS011;18374;51.136;3.502;2023-05-25T09:11:32;7.43;;;2.63;;
31798;SDS011;18374;51.136;3.502;2023-05-25T09:14:07;5.05;;;2.03;;
31798;SDS011;18374;51.136;3.502;2023-05-25T09:16:36;4.00;;;2.40;;
31798;SDS011;18374;51.136;3.502;2023-05-25T09:19:04;5.13;;;1.80;;
31798;SDS011;18374;51.136;3.502;2023-05-25T09:21:32;4.18;;;1.80;;
31798;SDS011;18374;51.136;3.502;2023-05-25T09:24:01;3.20;;;1.80;;
31798;SDS011;18374;51.136;3.502;2023-05-25T09:26:29;2.95;;;1.90;;
31798;SDS011;18374;51.136;3.502;2023-05-25T09:28:57;4.75;;;2.10;;
31798;SDS011;18374;51.136;3.502;2023-05-25T09:31:24;5.63;;;2.28;;
31798;SDS011;18374;51.136;3.502;2023-05-25T09:33:54;3.08;;;1.75;;
31798;SDS011;18374;51.136;3.502;2023-05-25T09:36:26;5.35;;;1.80;;
31798;SDS011;18374;51.136;3.502;2023-05-25T09:38:54;2.92;;;2.08;;
31798;SDS011;18374;51.136;3.502;2023-05-25T09:41:22;3.90;;;2.10;;
31798;SDS011;18374;51.136;3.502;2023-05-25T09:43:53;4.45;;;1.90;;
31798;SDS011;18374;51.136;3.502;2023-05-25T09:46:37;3.05;;;1.80;;
31798;SDS011;18374;51.136;3.502;2023-05-25T09:49:08;3.15;;;1.98;;
31798;SDS011;18374;51.136;3.502;2023-05-25T09:51:37;5.70;;;2.03;;
31798;SDS011;18374;51.136;3.502;2023-05-25T09:54:08;4.68;;;2.20;;
31798;SDS011;18374;51.136;3.502;2023-05-25T09:56:37;4.30;;;1.90;;
31798;SDS011;18374;51.136;3.502;2023-05-25T09:59:04;2.53;;;2.00;;
31798;SDS011;18374;51.136;3.502;2023-05-25T10:01:33;3.40;;;2.22;;
31798;SDS011;18374;51.136;3.502;2023-05-25T10:04:02;3.47;;;2.08;;
31798;SDS011;18374;51.136;3.502;2023-05-25T10:06:37;11.07;;;2.08;;
31798;SDS011;18374;51.136;3.502;2023-05-25T10:09:06;7.95;;;2.50;;
31798;SDS011;18374;51.136;3.502;2023-05-25T10:11:35;5.60;;;2.42;;
31798;SDS011;18374;51.136;3.502;2023-05-25T10:14:06;5.60;;;2.42;;
31798;SDS011;18374;51.136;3.502;2023-05-25T10:16:35;4.28;;;2.55;;
31798;SDS011;18374;51.136;3.502;2023-05-25T10:19:08;6.90;;;3.15;;
31798;SDS011;18374;51.136;3.502;2023-05-25T10:22:00;6.15;;;2.53;;
31798;SDS011;18374;51.136;3.502;2023-05-25T10:24:37;4.28;;;1.90;;
31798;SDS011;18374;51.136;3.502;2023-05-25T10:27:31;7.22;;;2.60;;
31798;SDS011;18374;51.136;3.502;2023-05-25T10:30:09;5.93;;;2.78;;
31798;SDS011;18374;51.136;3.502;2023-05-25T10:32:38;6.20;;;2.78;;
31798;SDS011;18374;51.136;3.502;2023-05-25T10:35:08;4.82;;;2.58;;
31798;SDS011;18374;51.136;3.502;2023-05-25T10:37:38;4.25;;;2.42;;
31798;SDS011;18374;51.136;3.502;2023-05-25T10:40:06;5.90;;;2.70;;
31798;SDS011;18374;51.136;3.502;2023-05-25T10:42:36;3.75;;;2.17;;
31798;SDS011;18374;51.136;3.502;2023-05-25T10:45:05;3.65;;;2.28;;
31798;SDS011;18374;51.136;3.502;2023-05-25T10:47:35;4.57;;;2.28;;
31798;SDS011;18374;51.136;3.502;2023-05-25T10:50:24;6.68;;;2.55;;
31798;SDS011;18374;51.136;3.502;2023-05-25T10:53:27;8.02;;;2.95;;
31798;SDS011;18374;51.136;3.502;2023-05-25T10:58:29;5.93;;;3.10;;
31798;SDS011;18374;51.136;3.502;2023-05-25T11:01:07;5.25;;;2.63;;
31798;SDS011;18374;51.136;3.502;2023-05-25T11:09:07;6.57;;;2.88;;
31798;SDS011;18374;51.136;3.502;2023-05-25T11:12:00;6.90;;;3.15;;
31798;SDS011;18374;51.136;3.502;2023-05-25T11:14:30;8.55;;;3.30;;
31798;SDS011;18374;51.136;3.502;2023-05-25T11:17:11;7.37;;;3.33;;
31798;SDS011;18374;51.136;3.502;2023-05-25T11:19:48;8.73;;;3.35;;
31798;SDS011;18374;51.136;3.502;2023-05-25T11:22:19;6.63;;;3.40;;
31798;SDS011;18374;51.136;3.502;2023-05-25T11:25:34;8.02;;;3.53;;
31798;SDS011;18374;51.136;3.502;2023-05-25T11:28:08;12.77;;;3.60;;
31798;SDS011;18374;51.136;3.502;2023-05-25T11:30:40;6.20;;;2.85;;
31798;SDS011;18374;51.136;3.502;2023-05-25T11:33:09;6.45;;;3.55;;
31798;SDS011;18374;51.136;3.502;2023-05-25T11:35:39;8.25;;;3.65;;
31798;SDS011;18374;51.136;3.502;2023-05-25T11:38:07;7.53;;;3.33;;
31798;SDS011;18374;51.136;3.502;2023-05-25T11:40:35;9.32;;;3.60;;
31798;SDS011;18374;51.136;3.502;2023-05-25T11:43:06;6.00;;;3.60;;
31798;SDS011;18374;51.136;3.502;2023-05-25T11:45:35;6.82;;;3.08;;
31798;SDS011;18374;51.136;3.502;2023-05-25T11:48:04;12.32;;;3.10;;
31798;SDS011;18374;51.136;3.502;2023-05-25T11:50:32;5.63;;;3.03;;
31798;SDS011;18374;51.136;3.502;2023-05-25T11:53:03;8.98;;;3.17;;
31798;SDS011;18374;51.136;3.502;2023-05-25T11:55:33;7.78;;;2.72;;
31798;SDS011;18374;51.136;3.502;2023-05-25T11:58:00;8.82;;;3.55;;
31798;SDS011;18374;51.136;3.502;2023-05-25T12:00:28;8.45;;;2.85;;
31798;SDS011;18374;51.136;3.502;2023-05-25T12:02:57;5.03;;;2.65;;
31798;SDS011;18374;51.136;3.502;2023-05-25T12:05:25;12.43;;;3.75;;
31798;SDS011;18374;51.136;3.502;2023-05-25T12:08:04;6.85;;;2.72;;
31798;SDS011;18374;51.136;3.502;2023-05-25T12:10:32;6.32;;;2.67;;
31798;SDS011;18374;51.136;3.502;2023-05-25T12:13:00;10.63;;;3.13;;
31798;SDS011;18374;51.136;3.502;2023-05-25T12:15:29;6.20;;;3.00;;
31798;SDS011;18374;51.136;3.502;2023-05-25T12:17:57;8.65;;;2.92;;
31798;SDS011;18374;51.136;3.502;2023-05-25T12:20:24;5.25;;;2.65;;
31798;SDS011;18374;51.136;3.502;2023-05-25T12:22:53;11.68;;;3.38;;
31798;SDS011;18374;51.136;3.502;2023-05-25T12:25:20;10.52;;;3.28;;
31798;SDS011;18374;51.136;3.502;2023-05-25T12:28:11;7.20;;;2.92;;
31798;SDS011;18374;51.136;3.502;2023-05-25T12:30:41;6.97;;;2.85;;
31798;SDS011;18374;51.136;3.502;2023-05-25T12:33:09;7.88;;;3.60;;
31798;SDS011;18374;51.136;3.502;2023-05-25T12:35:47;6.40;;;3.13;;
31798;SDS011;18374;51.136;3.502;2023-05-25T12:38:17;8.65;;;3.03;;
31798;SDS011;18374;51.136;3.502;2023-05-25T12:41:05;8.77;;;2.83;;
31798;SDS011;18374;51.136;3.502;2023-05-25T12:43:39;10.85;;;2.90;;
31798;SDS011;18374;51.136;3.502;2023-05-25T12:46:09;6.20;;;2.58;;
31798;SDS011;18374;51.136;3.502;2023-05-25T12:48:37;6.85;;;2.90;;
31798;SDS011;18374;51.136;3.502;2023-05-25T12:51:05;6.18;;;2.88;;
31798;SDS011;18374;51.136;3.502;2023-05-25T12:53:50;9.48;;;2.88;;
31798;SDS011;18374;51.136;3.502;2023-05-25T12:56:19;4.10;;;2.50;;
31798;SDS011;18374;51.136;3.502;2023-05-25T12:58:48;5.78;;;2.70;;
31798;SDS011;18374;51.136;3.502;2023-05-25T13:01:16;12.10;;;3.05;;
31798;SDS011;18374;51.136;3.502;2023-05-25T13:03:44;8.05;;;2.88;;
31798;SDS011;18374;51.136;3.502;2023-05-25T13:06:11;4.70;;;2.80;;
31798;SDS011;18374;51.136;3.502;2023-05-25T13:08:39;6.28;;;2.80;;
31798;SDS011;18374;51.136;3.502;2023-05-25T13:11:07;9.77;;;3.03;;
31798;SDS011;18374;51.136;3.502;2023-05-25T13:13:35;5.97;;;2.88;;
31798;SDS011;18374;51.136;3.502;2023-05-25T13:16:03;7.85;;;3.33;;
31798;SDS011;18374;51.136;3.502;2023-05-25T13:18:31;13.07;;;3.60;;
31798;SDS011;18374;51.136;3.502;2023-05-25T13:20:59;10.15;;;3.05;;
31798;SDS011;18374;51.136;3.502;2023-05-25T13:23:27;10.20;;;3.28;;
31798;SDS011;18374;51.136;3.502;2023-05-25T13:25:55;8.52;;;3.13;;
31798;SDS011;18374;51.136;3.502;2023-05-25T13:28:22;6.95;;;4.18;;
31798;SDS011;18374;51.136;3.502;2023-05-25T13:30:50;7.90;;;4.55;;
31798;SDS011;18374;51.136;3.502;2023-05-25T13:33:18;13.60;;;5.82;;
31798;SDS011;18374;51.136;3.502;2023-05-25T13:35:46;11.68;;;4.70;;
31798;SDS011;18374;51.136;3.502;2023-05-25T13:38:34;9.85;;;4.93;;
31798;SDS011;18374;51.136;3.502;2023-05-25T13:41:04;10.77;;;5.55;;
31798;SDS011;18374;51.136;3.502;2023-05-25T13:43:31;14.07;;;6.28;;
31798;SDS011;18374;51.136;3.502;2023-05-25T13:45:59;13.00;;;6.13;;
31798;SDS011;18374;51.136;3.502;2023-05-25T13:48:28;14.65;;;6.22;;
31798;SDS011;18374;51.136;3.502;2023-05-25T13:50:56;12.25;;;6.03;;
31798;SDS011;18374;51.136;3.502;2023-05-25T13:53:25;12.40;;;5.72;;
31798;SDS011;18374;51.136;3.502;2023-05-25T13:55:54;9.10;;;5.45;;
31798;SDS011;18374;51.136;3.502;2023-05-25T13:58:21;13.27;;;6.40;;
31798;SDS011;18374;51.136;3.502;2023-05-25T14:00:51;11.63;;;6.10;;
31798;SDS011;18374;51.136;3.502;2023-05-25T14:03:19;13.63;;;5.70;;
31798;SDS011;18374;51.136;3.502;2023-05-25T14:05:47;12.13;;;5.72;;
31798;SDS011;18374;51.136;3.502;2023-05-25T14:08:17;14.20;;;6.20;;
31798;SDS011;18374;51.136;3.502;2023-05-25T14:10:45;13.40;;;6.07;;
31798;SDS011;18374;51.136;3.502;2023-05-25T14:13:13;9.70;;;5.32;;
31798;SDS011;18374;51.136;3.502;2023-05-25T14:15:42;10.55;;;5.20;;
31798;SDS011;18374;51.136;3.502;2023-05-25T14:18:11;12.77;;;5.78;;
31798;SDS011;18374;51.136;3.502;2023-05-25T14:20:39;14.50;;;6.30;;
31798;SDS011;18374;51.136;3.502;2023-05-25T14:23:08;15.68;;;5.28;;
31798;SDS011;18374;51.136;3.502;2023-05-25T14:25:40;10.93;;;5.45;;
31798;SDS011;18374;51.136;3.502;2023-05-25T14:28:08;10.40;;;5.40;;
31798;SDS011;18374;51.136;3.502;2023-05-25T14:30:36;13.68;;;5.60;;
31798;SDS011;18374;51.136;3.502;2023-05-25T14:33:04;8.90;;;5.50;;
31798;SDS011;18374;51.136;3.502;2023-05-25T14:35:32;14.73;;;5.97;;
31798;SDS011;18374;51.136;3.502;2023-05-25T14:37:59;11.90;;;5.80;;
31798;SDS011;18374;51.136;3.502;2023-05-25T14:40:27;12.75;;;6.10;;
31798;SDS011;18374;51.136;3.502;2023-05-25T14:42:55;13.13;;;6.93;;
31798;SDS011;18374;51.136;3.502;2023-05-25T14:45:22;10.98;;;5.82;;
31798;SDS011;18374;51.136;3.502;2023-05-25T14:47:50;15.77;;;6.00;;
31798;SDS011;18374;51.136;3.502;2023-05-25T14:50:38;11.82;;;5.90;;
31798;SDS011;18374;51.136;3.502;2023-05-25T14:53:07;17.60;;;6.25;;
31798;SDS011;18374;51.136;3.502;2023-05-25T14:55:35;16.02;;;6.00;;
31798;SDS011;18374;51.136;3.502;2023-05-25T14:58:03;11.95;;;6.00;;
31798;SDS011;18374;51.136;3.502;2023-05-25T15:00:30;13.20;;;5.70;;
31798;SDS011;18374;51.136;3.502;2023-05-25T15:02:58;14.07;;;5.90;;
31798;SDS011;18374;51.136;3.502;2023-05-25T15:05:26;11.93;;;5.18;;
31798;SDS011;18374;51.136;3.502;2023-05-25T15:07:54;10.93;;;5.63;;
31798;SDS011;18374;51.136;3.502;2023-05-25T15:10:22;19.38;;;6.07;;